sensor_id;sensor_type;location;lat;lon;timestamp;pressure;altitude;pressure_sealevel;temperature
74915;BMP280;63475;45.140;-75.616;2023-02-04T00:00:20;101882.88;;;-26.17
74915;BMP280;63475;45.140;-75.616;2023-02-04T00:01:22;101881.84;;;-26.14
74915;BMP280;63475;45.140;-75.616;2023-02-04T00:02:23;101860.94;;;-26.24
74915;BMP280;63475;45.140;-75.616;2023-02-04T00:03:24;101858.44;;;-26.24
74915;BMP280;63475;45.140;-75.616;2023-02-04T00:04:25;101891.19;;;-26.05
74915;BMP280;63475;45.140;-75.616;2023-02-04T00:05:26;101884.50;;;-26.04
74915;BMP280;63475;45.140;-75.616;2023-02-04T00:06:27;101892.53;;;-26.12
74915;BMP280;63475;45.140;-75.616;2023-02-04T00:07:29;101885.88;;;-26.24
74915;BMP280;63475;45.140;-75.616;2023-02-04T00:08:30;101891.03;;;-26.14
74915;BMP280;63475;45.140;-75.616;2023-02-04T00:09:31;101888.38;;;-26.24
74915;BMP280;63475;45.140;-75.616;2023-02-04T00:10:32;101896.59;;;-26.11
74915;BMP280;63475;45.140;-75.616;2023-02-04T00:11:33;101901.59;;;-26.11
74915;BMP280;63475;45.140;-75.616;2023-02-04T00:12:34;101898.75;;;-26.06
74915;BMP280;63475;45.140;-75.616;2023-02-04T00:13:35;101902.28;;;-26.09
74915;BMP280;63475;45.140;-75.616;2023-02-04T00:14:36;101903.19;;;-26.10
74915;BMP280;63475;45.140;-75.616;2023-02-04T00:15:37;101912.50;;;-26.12
74915;BMP280;63475;45.140;-75.616;2023-02-04T00:16:38;101904.19;;;-26.12
74915;BMP280;63475;45.140;-75.616;2023-02-04T00:17:39;101895.84;;;-26.24
74915;BMP280;63475;45.140;-75.616;2023-02-04T00:18:40;101908.72;;;-26.18
74915;BMP280;63475;45.140;-75.616;2023-02-04T00:19:41;101909.63;;;-26.19
74915;BMP280;63475;45.140;-75.616;2023-02-04T00:20:42;101922.38;;;-26.23
74915;BMP280;63475;45.140;-75.616;2023-02-04T00:21:43;101913.06;;;-26.32
74915;BMP280;63475;45.140;-75.616;2023-02-04T00:22:44;101847.50;;;-26.70
74915;BMP280;63475;45.140;-75.616;2023-02-04T00:23:45;101840.06;;;-26.82
74915;BMP280;63475;45.140;-75.616;2023-02-04T00:24:46;101886.22;;;-26.53
74915;BMP280;63475;45.140;-75.616;2023-02-04T00:25:49;101912.28;;;-26.33
74915;BMP280;63475;45.140;-75.616;2023-02-04T00:26:50;101915.44;;;-26.31
74915;BMP280;63475;45.140;-75.616;2023-02-04T00:27:51;101916.91;;;-26.40
74915;BMP280;63475;45.140;-75.616;2023-02-04T00:28:52;101940.22;;;-26.41
74915;BMP280;63475;45.140;-75.616;2023-02-04T00:29:53;101917.78;;;-26.41
74915;BMP280;63475;45.140;-75.616;2023-02-04T00:30:54;101915.06;;;-26.38
74915;BMP280;63475;45.140;-75.616;2023-02-04T00:31:56;101922.88;;;-26.42
74915;BMP280;63475;45.140;-75.616;2023-02-04T00:32:57;101886.56;;;-26.70
74915;BMP280;63475;45.140;-75.616;2023-02-04T00:33:58;101933.28;;;-26.48
74915;BMP280;63475;45.140;-75.616;2023-02-04T00:34:59;101936.69;;;-26.49
74915;BMP280;63475;45.140;-75.616;2023-02-04T00:36:01;101929.59;;;-26.55
74915;BMP280;63475;45.140;-75.616;2023-02-04T00:37:02;101918.16;;;-26.58
74915;BMP280;63475;45.140;-75.616;2023-02-04T00:38:04;101925.38;;;-26.55
74915;BMP280;63475;45.140;-75.616;2023-02-04T00:39:05;101884.41;;;-26.75
74915;BMP280;63475;45.140;-75.616;2023-02-04T00:40:06;101931.69;;;-26.49
74915;BMP280;63475;45.140;-75.616;2023-02-04T00:41:07;101922.41;;;-26.47
74915;BMP280;63475;45.140;-75.616;2023-02-04T00:42:08;101889.06;;;-26.70
74915;BMP280;63475;45.140;-75.616;2023-02-04T00:43:09;101915.81;;;-26.48
74915;BMP280;63475;45.140;-75.616;2023-02-04T00:44:10;101889.53;;;-26.65
74915;BMP280;63475;45.140;-75.616;2023-02-04T00:45:13;101930.09;;;-26.50
74915;BMP280;63475;45.140;-75.616;2023-02-04T00:46:14;101902.44;;;-26.71
74915;BMP280;63475;45.140;-75.616;2023-02-04T00:47:15;101895.47;;;-26.79
74915;BMP280;63475;45.140;-75.616;2023-02-04T00:48:16;101850.31;;;-27.11
74915;BMP280;63475;45.140;-75.616;2023-02-04T00:49:17;101938.72;;;-26.54
74915;BMP280;63475;45.140;-75.616;2023-02-04T00:50:18;101942.25;;;-26.58
74915;BMP280;63475;45.140;-75.616;2023-02-04T00:51:19;101948.06;;;-26.58
74915;BMP280;63475;45.140;-75.616;2023-02-04T00:52:20;101950.75;;;-26.61
74915;BMP280;63475;45.140;-75.616;2023-02-04T00:53:21;101947.56;;;-26.63
74915;BMP280;63475;45.140;-75.616;2023-02-04T00:54:22;101935.72;;;-26.72
74915;BMP280;63475;45.140;-75.616;2023-02-04T00:55:23;101924.78;;;-26.82
74915;BMP280;63475;45.140;-75.616;2023-02-04T00:56:24;101940.44;;;-26.80
74915;BMP280;63475;45.140;-75.616;2023-02-04T00:57:25;101953.16;;;-26.72
74915;BMP280;63475;45.140;-75.616;2023-02-04T00:58:26;101960.44;;;-26.69
74915;BMP280;63475;45.140;-75.616;2023-02-04T00:59:27;101955.94;;;-26.64
74915;BMP280;63475;45.140;-75.616;2023-02-04T01:00:28;101952.88;;;-26.68
74915;BMP280;63475;45.140;-75.616;2023-02-04T01:01:29;101960.63;;;-26.59
74915;BMP280;63475;45.140;-75.616;2023-02-04T01:02:30;101961.63;;;-26.62
74915;BMP280;63475;45.140;-75.616;2023-02-04T01:03:31;101963.31;;;-26.63
74915;BMP280;63475;45.140;-75.616;2023-02-04T01:04:32;101929.75;;;-26.82
74915;BMP280;63475;45.140;-75.616;2023-02-04T01:05:33;101962.72;;;-26.66
74915;BMP280;63475;45.140;-75.616;2023-02-04T01:06:34;101961.56;;;-26.73
74915;BMP280;63475;45.140;-75.616;2023-02-04T01:07:35;101967.63;;;-26.65
74915;BMP280;63475;45.140;-75.616;2023-02-04T01:08:37;101930.19;;;-26.89
74915;BMP280;63475;45.140;-75.616;2023-02-04T01:09:38;101971.13;;;-26.67
74915;BMP280;63475;45.140;-75.616;2023-02-04T01:10:39;101967.72;;;-26.66
74915;BMP280;63475;45.140;-75.616;2023-02-04T01:11:40;101966.13;;;-26.67
74915;BMP280;63475;45.140;-75.616;2023-02-04T01:12:41;101946.53;;;-26.84
74915;BMP280;63475;45.140;-75.616;2023-02-04T01:13:42;101963.63;;;-26.67
74915;BMP280;63475;45.140;-75.616;2023-02-04T01:14:43;101968.81;;;-26.70
74915;BMP280;63475;45.140;-75.616;2023-02-04T01:15:43;101954.00;;;-26.84
74915;BMP280;63475;45.140;-75.616;2023-02-04T01:16:44;101971.44;;;-26.72
74915;BMP280;63475;45.140;-75.616;2023-02-04T01:17:45;101980.69;;;-26.74
74915;BMP280;63475;45.140;-75.616;2023-02-04T01:18:46;101946.31;;;-26.94
74915;BMP280;63475;45.140;-75.616;2023-02-04T01:19:47;101988.06;;;-26.72
74915;BMP280;63475;45.140;-75.616;2023-02-04T01:20:48;101971.06;;;-26.78
74915;BMP280;63475;45.140;-75.616;2023-02-04T01:21:49;101980.00;;;-26.76
74915;BMP280;63475;45.140;-75.616;2023-02-04T01:22:50;101970.34;;;-26.80
74915;BMP280;63475;45.140;-75.616;2023-02-04T01:23:51;101924.34;;;-27.13
74915;BMP280;63475;45.140;-75.616;2023-02-04T01:24:52;101982.69;;;-26.79
74915;BMP280;63475;45.140;-75.616;2023-02-04T01:25:53;101967.75;;;-26.92
74915;BMP280;63475;45.140;-75.616;2023-02-04T01:26:54;101956.00;;;-27.02
74915;BMP280;63475;45.140;-75.616;2023-02-04T01:27:55;101978.03;;;-26.83
74915;BMP280;63475;45.140;-75.616;2023-02-04T01:28:56;101983.00;;;-26.83
74915;BMP280;63475;45.140;-75.616;2023-02-04T01:29:57;101986.50;;;-26.86
74915;BMP280;63475;45.140;-75.616;2023-02-04T01:30:58;101989.22;;;-26.89
74915;BMP280;63475;45.140;-75.616;2023-02-04T01:31:59;101981.63;;;-26.88
74915;BMP280;63475;45.140;-75.616;2023-02-04T01:33:00;101981.63;;;-26.88
74915;BMP280;63475;45.140;-75.616;2023-02-04T01:34:01;101986.72;;;-26.89
74915;BMP280;63475;45.140;-75.616;2023-02-04T01:35:03;101989.09;;;-26.88
74915;BMP280;63475;45.140;-75.616;2023-02-04T01:36:05;101998.28;;;-26.88
74915;BMP280;63475;45.140;-75.616;2023-02-04T01:37:06;101993.16;;;-26.87
74915;BMP280;63475;45.140;-75.616;2023-02-04T01:38:06;101954.31;;;-27.15
74915;BMP280;63475;45.140;-75.616;2023-02-04T01:39:07;102000.03;;;-26.90
74915;BMP280;63475;45.140;-75.616;2023-02-04T01:40:09;102001.72;;;-26.91
74915;BMP280;63475;45.140;-75.616;2023-02-04T01:41:10;101984.78;;;-26.98
74915;BMP280;63475;45.140;-75.616;2023-02-04T01:42:11;101991.97;;;-26.94
74915;BMP280;63475;45.140;-75.616;2023-02-04T01:43:12;101984.78;;;-26.98
74915;BMP280;63475;45.140;-75.616;2023-02-04T01:44:13;101994.56;;;-26.95
74915;BMP280;63475;45.140;-75.616;2023-02-04T01:45:14;101994.56;;;-26.95
74915;BMP280;63475;45.140;-75.616;2023-02-04T01:46:16;101950.91;;;-27.26
74915;BMP280;63475;45.140;-75.616;2023-02-04T01:47:17;101991.56;;;-27.00
74915;BMP280;63475;45.140;-75.616;2023-02-04T01:48:20;101918.94;;;-27.45
74915;BMP280;63475;45.140;-75.616;2023-02-04T01:49:22;101987.59;;;-27.03
74915;BMP280;63475;45.140;-75.616;2023-02-04T01:50:23;102002.13;;;-26.97
74915;BMP280;63475;45.140;-75.616;2023-02-04T01:51:26;102008.28;;;-26.90
74915;BMP280;63475;45.140;-75.616;2023-02-04T01:52:33;102002.50;;;-26.90
74915;BMP280;63475;45.140;-75.616;2023-02-04T01:53:35;102008.72;;;-26.96
74915;BMP280;63475;45.140;-75.616;2023-02-04T01:54:36;101918.56;;;-27.52
74915;BMP280;63475;45.140;-75.616;2023-02-04T01:55:37;102012.09;;;-26.97
74915;BMP280;63475;45.140;-75.616;2023-02-04T01:56:41;101979.22;;;-27.15
74915;BMP280;63475;45.140;-75.616;2023-02-04T01:57:43;102013.69;;;-26.96
74915;BMP280;63475;45.140;-75.616;2023-02-04T01:58:45;102022.84;;;-26.96
74915;BMP280;63475;45.140;-75.616;2023-02-04T01:59:47;102005.72;;;-27.01
74915;BMP280;63475;45.140;-75.616;2023-02-04T02:00:48;102021.56;;;-27.02
74915;BMP280;63475;45.140;-75.616;2023-02-04T02:01:51;102019.97;;;-27.03
74915;BMP280;63475;45.140;-75.616;2023-02-04T02:02:53;102029.03;;;-27.02
74915;BMP280;63475;45.140;-75.616;2023-02-04T02:03:54;102024.84;;;-27.01
74915;BMP280;63475;45.140;-75.616;2023-02-04T02:04:55;102005.13;;;-27.17
74915;BMP280;63475;45.140;-75.616;2023-02-04T02:05:56;101975.03;;;-27.40
74915;BMP280;63475;45.140;-75.616;2023-02-04T02:06:59;101995.94;;;-27.29
74915;BMP280;63475;45.140;-75.616;2023-02-04T02:08:06;102009.22;;;-27.16
74915;BMP280;63475;45.140;-75.616;2023-02-04T02:09:08;102015.47;;;-27.11
74915;BMP280;63475;45.140;-75.616;2023-02-04T02:10:11;102033.13;;;-27.01
74915;BMP280;63475;45.140;-75.616;2023-02-04T02:11:12;102035.13;;;-27.06
74915;BMP280;63475;45.140;-75.616;2023-02-04T02:12:13;102044.19;;;-27.05
74915;BMP280;63475;45.140;-75.616;2023-02-04T02:13:17;102034.41;;;-27.08
74915;BMP280;63475;45.140;-75.616;2023-02-04T02:14:18;102045.19;;;-27.08
74915;BMP280;63475;45.140;-75.616;2023-02-04T02:15:20;102050.16;;;-27.08
74915;BMP280;63475;45.140;-75.616;2023-02-04T02:16:21;102056.84;;;-27.08
74915;BMP280;63475;45.140;-75.616;2023-02-04T02:17:22;102046.69;;;-27.05
74915;BMP280;63475;45.140;-75.616;2023-02-04T02:18:23;102040.13;;;-27.06
74915;BMP280;63475;45.140;-75.616;2023-02-04T02:19:31;102036.00;;;-27.07
74915;BMP280;63475;45.140;-75.616;2023-02-04T02:20:33;102051.47;;;-27.02
74915;BMP280;63475;45.140;-75.616;2023-02-04T02:21:43;102052.84;;;-26.98
74915;BMP280;63475;45.140;-75.616;2023-02-04T02:24:25;102062.63;;;-26.95
74915;BMP280;63475;45.140;-75.616;2023-02-04T02:25:26;102057.72;;;-26.96
74915;BMP280;63475;45.140;-75.616;2023-02-04T02:26:27;102064.91;;;-26.92
74915;BMP280;63475;45.140;-75.616;2023-02-04T02:27:28;102049.75;;;-27.01
74915;BMP280;63475;45.140;-75.616;2023-02-04T02:28:29;102075.31;;;-26.85
74915;BMP280;63475;45.140;-75.616;2023-02-04T02:29:30;102070.94;;;-26.81
74915;BMP280;63475;45.140;-75.616;2023-02-04T02:30:31;102074.63;;;-26.74
74915;BMP280;63475;45.140;-75.616;2023-02-04T02:31:32;102071.88;;;-26.97
74915;BMP280;63475;45.140;-75.616;2023-02-04T02:32:34;102078.34;;;-27.07
74915;BMP280;63475;45.140;-75.616;2023-02-04T02:33:35;102072.28;;;-26.90
74915;BMP280;63475;45.140;-75.616;2023-02-04T02:34:37;102073.41;;;-26.81
74915;BMP280;63475;45.140;-75.616;2023-02-04T02:35:39;102070.53;;;-26.88
74915;BMP280;63475;45.140;-75.616;2023-02-04T02:36:42;102071.41;;;-27.02
74915;BMP280;63475;45.140;-75.616;2023-02-04T02:37:44;102074.50;;;-26.98
74915;BMP280;63475;45.140;-75.616;2023-02-04T02:38:45;102073.97;;;-27.03
74915;BMP280;63475;45.140;-75.616;2023-02-04T02:39:46;102068.81;;;-27.13
74915;BMP280;63475;45.140;-75.616;2023-02-04T02:40:47;102075.97;;;-27.09
74915;BMP280;63475;45.140;-75.616;2023-02-04T02:41:49;102068.50;;;-26.96
74915;BMP280;63475;45.140;-75.616;2023-02-04T02:42:51;102078.22;;;-26.78
74915;BMP280;63475;45.140;-75.616;2023-02-04T02:43:53;102080.28;;;-26.72
74915;BMP280;63475;45.140;-75.616;2023-02-04T02:44:54;102078.50;;;-26.70
74915;BMP280;63475;45.140;-75.616;2023-02-04T02:45:57;102075.91;;;-26.81
74915;BMP280;63475;45.140;-75.616;2023-02-04T02:46:59;102029.63;;;-27.11
74915;BMP280;63475;45.140;-75.616;2023-02-04T02:48:01;102071.13;;;-26.84
74915;BMP280;63475;45.140;-75.616;2023-02-04T02:49:02;102078.38;;;-26.94
74915;BMP280;63475;45.140;-75.616;2023-02-04T02:50:04;102061.34;;;-27.13
74915;BMP280;63475;45.140;-75.616;2023-02-04T02:51:05;102082.09;;;-26.87
74915;BMP280;63475;45.140;-75.616;2023-02-04T02:52:09;102085.09;;;-26.82
74915;BMP280;63475;45.140;-75.616;2023-02-04T02:53:13;102087.06;;;-26.62
74915;BMP280;63475;45.140;-75.616;2023-02-04T02:54:24;102092.38;;;-26.53
74915;BMP280;63475;45.140;-75.616;2023-02-04T02:55:27;102091.94;;;-26.60
74915;BMP280;63475;45.140;-75.616;2023-02-04T02:56:28;102098.22;;;-26.67
74915;BMP280;63475;45.140;-75.616;2023-02-04T02:57:29;102090.75;;;-26.67
74915;BMP280;63475;45.140;-75.616;2023-02-04T02:58:32;102064.75;;;-26.89
74915;BMP280;63475;45.140;-75.616;2023-02-04T02:59:33;102099.44;;;-26.73
74915;BMP280;63475;45.140;-75.616;2023-02-04T03:00:34;102084.13;;;-26.94
74915;BMP280;63475;45.140;-75.616;2023-02-04T03:01:35;102092.06;;;-26.74
74915;BMP280;63475;45.140;-75.616;2023-02-04T03:02:36;102096.03;;;-26.59
74915;BMP280;63475;45.140;-75.616;2023-02-04T03:03:49;102083.97;;;-26.52
74915;BMP280;63475;45.140;-75.616;2023-02-04T03:04:54;102103.91;;;-26.40
74915;BMP280;63475;45.140;-75.616;2023-02-04T03:06:08;102090.88;;;-26.43
74915;BMP280;63475;45.140;-75.616;2023-02-04T03:07:11;102084.47;;;-26.60
74915;BMP280;63475;45.140;-75.616;2023-02-04T03:08:14;102073.94;;;-26.51
74915;BMP280;63475;45.140;-75.616;2023-02-04T03:09:16;102066.66;;;-26.54
74915;BMP280;63475;45.140;-75.616;2023-02-04T03:10:17;102104.72;;;-26.39
74915;BMP280;63475;45.140;-75.616;2023-02-04T03:11:18;102062.03;;;-26.60
74915;BMP280;63475;45.140;-75.616;2023-02-04T03:12:19;102078.78;;;-26.62
74915;BMP280;63475;45.140;-75.616;2023-02-04T03:13:20;102077.00;;;-26.73
74915;BMP280;63475;45.140;-75.616;2023-02-04T03:14:22;102101.00;;;-26.59
74915;BMP280;63475;45.140;-75.616;2023-02-04T03:15:25;102107.41;;;-26.42
74915;BMP280;63475;45.140;-75.616;2023-02-04T03:16:27;102104.25;;;-26.44
74915;BMP280;63475;45.140;-75.616;2023-02-04T03:17:30;102096.44;;;-26.52
74915;BMP280;63475;45.140;-75.616;2023-02-04T03:18:31;102112.19;;;-26.52
74915;BMP280;63475;45.140;-75.616;2023-02-04T03:19:32;102108.41;;;-26.45
74915;BMP280;63475;45.140;-75.616;2023-02-04T03:20:36;102094.56;;;-26.62
74915;BMP280;63475;45.140;-75.616;2023-02-04T03:21:37;102102.75;;;-26.47
74915;BMP280;63475;45.140;-75.616;2023-02-04T03:22:39;102106.81;;;-26.46
74915;BMP280;63475;45.140;-75.616;2023-02-04T03:23:40;102112.28;;;-26.41
74915;BMP280;63475;45.140;-75.616;2023-02-04T03:24:41;102110.22;;;-26.47
74915;BMP280;63475;45.140;-75.616;2023-02-04T03:25:42;102107.81;;;-26.48
74915;BMP280;63475;45.140;-75.616;2023-02-04T03:26:43;102103.63;;;-26.48
74915;BMP280;63475;45.140;-75.616;2023-02-04T03:27:45;102106.22;;;-26.75
74915;BMP280;63475;45.140;-75.616;2023-02-04T03:28:45;102080.56;;;-27.02
74915;BMP280;63475;45.140;-75.616;2023-02-04T03:29:46;102107.59;;;-26.83
74915;BMP280;63475;45.140;-75.616;2023-02-04T03:30:47;102063.94;;;-26.76
74915;BMP280;63475;45.140;-75.616;2023-02-04T03:31:53;102087.78;;;-26.47
74915;BMP280;63475;45.140;-75.616;2023-02-04T03:32:55;102106.59;;;-26.30
74915;BMP280;63475;45.140;-75.616;2023-02-04T03:33:56;102112.47;;;-26.31
74915;BMP280;63475;45.140;-75.616;2023-02-04T03:34:57;102112.81;;;-26.48
74915;BMP280;63475;45.140;-75.616;2023-02-04T03:35:58;102100.03;;;-26.69
74915;BMP280;63475;45.140;-75.616;2023-02-04T03:36:58;102104.00;;;-26.79
74915;BMP280;63475;45.140;-75.616;2023-02-04T03:38:00;102104.28;;;-26.97
74915;BMP280;63475;45.140;-75.616;2023-02-04T03:39:01;102107.47;;;-26.95
74915;BMP280;63475;45.140;-75.616;2023-02-04T03:40:02;102103.81;;;-26.76
74915;BMP280;63475;45.140;-75.616;2023-02-04T03:41:04;102109.06;;;-26.94
74915;BMP280;63475;45.140;-75.616;2023-02-04T03:42:05;102113.59;;;-26.73
74915;BMP280;63475;45.140;-75.616;2023-02-04T03:43:06;102102.38;;;-27.06
74915;BMP280;63475;45.140;-75.616;2023-02-04T03:44:07;102101.91;;;-27.25
74915;BMP280;63475;45.140;-75.616;2023-02-04T03:45:08;102103.97;;;-27.05
74915;BMP280;63475;45.140;-75.616;2023-02-04T03:46:09;102113.06;;;-26.91
74915;BMP280;63475;45.140;-75.616;2023-02-04T03:47:10;102069.28;;;-27.08
74915;BMP280;63475;45.140;-75.616;2023-02-04T03:48:11;102104.41;;;-26.73
74915;BMP280;63475;45.140;-75.616;2023-02-04T03:49:12;102110.09;;;-26.71
74915;BMP280;63475;45.140;-75.616;2023-02-04T03:50:13;102105.66;;;-26.93
74915;BMP280;63475;45.140;-75.616;2023-02-04T03:51:14;102116.66;;;-26.82
74915;BMP280;63475;45.140;-75.616;2023-02-04T03:52:15;102119.66;;;-26.77
74915;BMP280;63475;45.140;-75.616;2023-02-04T03:53:16;102120.31;;;-27.01
74915;BMP280;63475;45.140;-75.616;2023-02-04T03:54:17;102107.66;;;-27.11
74915;BMP280;63475;45.140;-75.616;2023-02-04T03:55:18;102104.66;;;-27.16
74915;BMP280;63475;45.140;-75.616;2023-02-04T03:56:19;102078.44;;;-27.21
74915;BMP280;63475;45.140;-75.616;2023-02-04T03:57:20;102122.13;;;-27.03
74915;BMP280;63475;45.140;-75.616;2023-02-04T03:58:22;102118.53;;;-26.99
74915;BMP280;63475;45.140;-75.616;2023-02-04T03:59:23;102121.72;;;-26.97
74915;BMP280;63475;45.140;-75.616;2023-02-04T04:00:24;102121.31;;;-26.91
74915;BMP280;63475;45.140;-75.616;2023-02-04T04:01:25;102112.94;;;-27.02
74915;BMP280;63475;45.140;-75.616;2023-02-04T04:02:25;102121.69;;;-27.22
74915;BMP280;63475;45.140;-75.616;2023-02-04T04:03:26;102126.69;;;-27.37
74915;BMP280;63475;45.140;-75.616;2023-02-04T04:04:27;102131.16;;;-27.42
74915;BMP280;63475;45.140;-75.616;2023-02-04T04:05:34;102117.34;;;-27.60
74915;BMP280;63475;45.140;-75.616;2023-02-04T04:06:35;102137.03;;;-27.43
74915;BMP280;63475;45.140;-75.616;2023-02-04T04:07:37;102124.16;;;-27.49
74915;BMP280;63475;45.140;-75.616;2023-02-04T04:08:38;102117.44;;;-27.35
74915;BMP280;63475;45.140;-75.616;2023-02-04T04:09:39;102139.56;;;-27.30
74915;BMP280;63475;45.140;-75.616;2023-02-04T04:10:40;102141.22;;;-27.43
74915;BMP280;63475;45.140;-75.616;2023-02-04T04:11:41;102141.22;;;-27.43
74915;BMP280;63475;45.140;-75.616;2023-02-04T04:12:41;102144.09;;;-27.22
74915;BMP280;63475;45.140;-75.616;2023-02-04T04:13:42;102141.44;;;-27.34
74915;BMP280;63475;45.140;-75.616;2023-02-04T04:14:43;102145.03;;;-27.25
74915;BMP280;63475;45.140;-75.616;2023-02-04T04:15:44;102140.88;;;-27.24
74915;BMP280;63475;45.140;-75.616;2023-02-04T04:16:45;102146.19;;;-27.43
74915;BMP280;63475;45.140;-75.616;2023-02-04T04:17:46;102151.78;;;-27.40
74915;BMP280;63475;45.140;-75.616;2023-02-04T04:18:47;102137.28;;;-27.47
74915;BMP280;63475;45.140;-75.616;2023-02-04T04:19:48;102147.56;;;-27.66
74915;BMP280;63475;45.140;-75.616;2023-02-04T04:20:49;102139.19;;;-27.65
74915;BMP280;63475;45.140;-75.616;2023-02-04T04:21:50;102149.78;;;-27.35
74915;BMP280;63475;45.140;-75.616;2023-02-04T04:22:51;102156.94;;;-27.43
74915;BMP280;63475;45.140;-75.616;2023-02-04T04:23:52;102155.72;;;-27.50
74915;BMP280;63475;45.140;-75.616;2023-02-04T04:24:53;102151.69;;;-27.38
74915;BMP280;63475;45.140;-75.616;2023-02-04T04:25:54;102109.19;;;-27.76
74915;BMP280;63475;45.140;-75.616;2023-02-04T04:26:55;102163.63;;;-27.58
74915;BMP280;63475;45.140;-75.616;2023-02-04T04:27:56;102162.00;;;-27.44
74915;BMP280;63475;45.140;-75.616;2023-02-04T04:28:57;102136.72;;;-27.65
74915;BMP280;63475;45.140;-75.616;2023-02-04T04:29:58;102159.09;;;-27.65
74915;BMP280;63475;45.140;-75.616;2023-02-04T04:30:59;102126.84;;;-27.67
74915;BMP280;63475;45.140;-75.616;2023-02-04T04:32:00;102114.19;;;-27.76
74915;BMP280;63475;45.140;-75.616;2023-02-04T04:33:01;102136.38;;;-27.73
74915;BMP280;63475;45.140;-75.616;2023-02-04T04:34:02;102163.19;;;-27.64
74915;BMP280;63475;45.140;-75.616;2023-02-04T04:35:03;102162.50;;;-27.66
74915;BMP280;63475;45.140;-75.616;2023-02-04T04:36:05;102163.09;;;-27.63
74915;BMP280;63475;45.140;-75.616;2023-02-04T04:37:06;102167.88;;;-27.87
74915;BMP280;63475;45.140;-75.616;2023-02-04T04:38:07;102134.47;;;-28.26
74915;BMP280;63475;45.140;-75.616;2023-02-04T04:39:08;102155.78;;;-27.93
74915;BMP280;63475;45.140;-75.616;2023-02-04T04:40:11;102171.94;;;-27.86
74915;BMP280;63475;45.140;-75.616;2023-02-04T04:41:12;102158.88;;;-27.89
74915;BMP280;63475;45.140;-75.616;2023-02-04T04:42:13;102167.69;;;-27.84
74915;BMP280;63475;45.140;-75.616;2023-02-04T04:43:14;102168.22;;;-27.93
74915;BMP280;63475;45.140;-75.616;2023-02-04T04:44:15;102140.13;;;-28.09
74915;BMP280;63475;45.140;-75.616;2023-02-04T04:45:16;102153.44;;;-28.10
74915;BMP280;63475;45.140;-75.616;2023-02-04T04:46:17;102085.59;;;-28.27
74915;BMP280;63475;45.140;-75.616;2023-02-04T04:47:18;102182.22;;;-27.49
74915;BMP280;63475;45.140;-75.616;2023-02-04T04:48:19;102188.09;;;-27.50
74915;BMP280;63475;45.140;-75.616;2023-02-04T04:49:21;102183.19;;;-27.94
74915;BMP280;63475;45.140;-75.616;2023-02-04T04:50:22;102151.06;;;-28.12
74915;BMP280;63475;45.140;-75.616;2023-02-04T04:51:23;102194.84;;;-27.52
74915;BMP280;63475;45.140;-75.616;2023-02-04T04:52:24;102195.69;;;-27.39
74915;BMP280;63475;45.140;-75.616;2023-02-04T04:53:26;102202.31;;;-27.25
74915;BMP280;63475;45.140;-75.616;2023-02-04T04:54:27;102203.31;;;-27.13
74915;BMP280;63475;45.140;-75.616;2023-02-04T04:55:28;102166.06;;;-27.56
74915;BMP280;63475;45.140;-75.616;2023-02-04T04:56:29;102212.38;;;-27.12
74915;BMP280;63475;45.140;-75.616;2023-02-04T04:57:30;102217.34;;;-27.12
74915;BMP280;63475;45.140;-75.616;2023-02-04T04:58:31;102206.34;;;-27.22
74915;BMP280;63475;45.140;-75.616;2023-02-04T04:59:32;102168.50;;;-27.42
74915;BMP280;63475;45.140;-75.616;2023-02-04T05:00:33;102219.00;;;-26.98
74915;BMP280;63475;45.140;-75.616;2023-02-04T05:01:34;102208.00;;;-27.09
74915;BMP280;63475;45.140;-75.616;2023-02-04T05:02:35;102200.09;;;-27.15
74915;BMP280;63475;45.140;-75.616;2023-02-04T05:03:36;102175.13;;;-27.28
74915;BMP280;63475;45.140;-75.616;2023-02-04T05:04:37;102226.34;;;-26.97
74915;BMP280;63475;45.140;-75.616;2023-02-04T05:05:38;102227.97;;;-26.96
74915;BMP280;63475;45.140;-75.616;2023-02-04T05:06:40;102212.25;;;-27.11
74915;BMP280;63475;45.140;-75.616;2023-02-04T05:07:41;102235.94;;;-27.18
74915;BMP280;63475;45.140;-75.616;2023-02-04T05:08:42;102232.78;;;-27.20
74915;BMP280;63475;45.140;-75.616;2023-02-04T05:09:43;102219.69;;;-27.23
74915;BMP280;63475;45.140;-75.616;2023-02-04T05:10:44;102207.69;;;-27.31
74915;BMP280;63475;45.140;-75.616;2023-02-04T05:11:45;102224.13;;;-27.28
74915;BMP280;63475;45.140;-75.616;2023-02-04T05:12:47;102224.22;;;-27.30
74915;BMP280;63475;45.140;-75.616;2023-02-04T05:13:48;102223.16;;;-27.26
74915;BMP280;63475;45.140;-75.616;2023-02-04T05:14:49;102220.66;;;-27.26
74915;BMP280;63475;45.140;-75.616;2023-02-04T05:15:51;102223.50;;;-27.18
74915;BMP280;63475;45.140;-75.616;2023-02-04T05:16:52;102198.91;;;-27.37
74915;BMP280;63475;45.140;-75.616;2023-02-04T05:17:53;102221.44;;;-27.25
74915;BMP280;63475;45.140;-75.616;2023-02-04T05:18:54;102189.13;;;-27.40
74915;BMP280;63475;45.140;-75.616;2023-02-04T05:19:55;102226.59;;;-27.14
74915;BMP280;63475;45.140;-75.616;2023-02-04T05:20:56;102227.88;;;-27.21
74915;BMP280;63475;45.140;-75.616;2023-02-04T05:21:58;102222.59;;;-27.17
74915;BMP280;63475;45.140;-75.616;2023-02-04T05:23:00;102228.28;;;-27.15
74915;BMP280;63475;45.140;-75.616;2023-02-04T05:24:02;102231.75;;;-27.03
74915;BMP280;63475;45.140;-75.616;2023-02-04T05:25:06;102231.22;;;-27.08
74915;BMP280;63475;45.140;-75.616;2023-02-04T05:26:06;102225.94;;;-27.03
74915;BMP280;63475;45.140;-75.616;2023-02-04T05:27:07;102225.06;;;-27.02
74915;BMP280;63475;45.140;-75.616;2023-02-04T05:28:08;102226.34;;;-26.97
74915;BMP280;63475;45.140;-75.616;2023-02-04T05:29:09;102188.75;;;-27.19
74915;BMP280;63475;45.140;-75.616;2023-02-04T05:30:11;102229.56;;;-26.95
74915;BMP280;63475;45.140;-75.616;2023-02-04T05:31:13;102199.13;;;-27.13
74915;BMP280;63475;45.140;-75.616;2023-02-04T05:32:14;102231.34;;;-26.97
74915;BMP280;63475;45.140;-75.616;2023-02-04T05:33:15;102210.38;;;-27.07
74915;BMP280;63475;45.140;-75.616;2023-02-04T05:34:16;102240.22;;;-26.93
74915;BMP280;63475;45.140;-75.616;2023-02-04T05:35:17;102228.53;;;-27.05
74915;BMP280;63475;45.140;-75.616;2023-02-04T05:36:18;102244.47;;;-27.08